createdAt,value
2023-01-13T00:00:00.178Z,84.2
2023-01-13T00:05:00.141Z,83.5
2023-01-13T00:10:00.196Z,84.2
2023-01-13T00:15:00.123Z,84.2
2023-01-13T00:20:00.091Z,83.8
2023-01-13T00:25:00.113Z,84.4
2023-01-13T00:30:00.154Z,84.6
2023-01-13T00:35:00.138Z,84.7
2023-01-13T00:40:00.115Z,84.6
2023-01-13T00:45:00.137Z,84.4
2023-01-13T00:50:00.177Z,84.4
2023-01-13T00:55:00.133Z,84.3
2023-01-13T01:00:00.165Z,84.3
2023-01-13T01:05:00.124Z,84.3
2023-01-13T01:10:00.111Z,84.1
2023-01-13T01:15:00.134Z,84.1
2023-01-13T01:20:00.120Z,84
2023-01-13T01:25:00.147Z,84
2023-01-13T01:30:00.147Z,84
2023-01-13T01:35:00.136Z,84
2023-01-13T01:40:00.154Z,83.9
2023-01-13T01:45:00.110Z,83.8
2023-01-13T01:50:00.130Z,83.7
2023-01-13T01:55:00.169Z,83.9
2023-01-13T02:00:00.156Z,83.9
2023-01-13T02:05:00.135Z,84
2023-01-13T02:10:00.112Z,84.2
2023-01-13T02:15:00.140Z,84.2
2023-01-13T02:20:00.140Z,84.2
2023-01-13T02:25:00.118Z,84.1
2023-01-13T02:30:00.119Z,84.1
2023-01-13T02:35:00.151Z,83.9
2023-01-13T02:40:00.150Z,83.8
2023-01-13T02:45:00.085Z,83.7
2023-01-13T02:50:00.144Z,83.7
2023-01-13T02:55:00.122Z,83.4
2023-01-13T03:00:00.183Z,83.4
2023-01-13T03:05:00.131Z,83.4
2023-01-13T03:10:00.117Z,83.4
2023-01-13T03:15:00.139Z,83.4
2023-01-13T03:20:00.129Z,83.5
2023-01-13T03:25:00.136Z,83.7
2023-01-13T03:30:00.172Z,83.9
2023-01-13T03:35:00.132Z,84
2023-01-13T03:40:00.129Z,84.1
2023-01-13T03:45:00.123Z,84.1
2023-01-13T03:50:00.164Z,84
2023-01-13T03:55:00.156Z,84
2023-01-13T04:00:00.172Z,84.1
2023-01-13T04:05:00.106Z,84.3
2023-01-13T04:10:01.091Z,84.5
2023-01-13T04:15:00.175Z,84.6
2023-01-13T04:20:00.145Z,84.7
2023-01-13T04:25:00.108Z,84.8
2023-01-13T04:30:00.124Z,84.9
2023-01-13T04:35:00.137Z,85.2
2023-01-13T04:40:00.127Z,85.3
2023-01-13T04:45:00.121Z,85.7
2023-01-13T04:50:00.182Z,85.8
2023-01-13T04:55:00.150Z,85.9
2023-01-13T05:00:00.135Z,86.1
2023-01-13T05:05:00.142Z,86
2023-01-13T05:10:00.114Z,86
2023-01-13T05:15:00.150Z,85.9
2023-01-13T05:20:00.159Z,85
2023-01-13T05:25:00.122Z,85.9
2023-01-13T05:30:00.161Z,85.9
2023-01-13T05:35:00.141Z,85.9
2023-01-13T05:40:00.180Z,85.9
2023-01-13T05:45:00.115Z,85.8
2023-01-13T05:50:00.155Z,85.8
2023-01-13T05:55:00.168Z,85.8
2023-01-13T06:00:00.173Z,85.8
2023-01-13T06:05:00.105Z,85.9
2023-01-13T06:10:00.099Z,85.7
2023-01-13T06:15:00.177Z,85.6
2023-01-13T06:20:00.165Z,85.6
2023-01-13T06:25:00.173Z,85.7
2023-01-13T06:30:00.204Z,85.9
2023-01-13T06:35:00.156Z,85.9
2023-01-13T06:40:00.171Z,86.2
2023-01-13T06:45:00.096Z,86.2
2023-01-13T06:50:00.120Z,86.2
2023-01-13T06:55:00.144Z,86.2
2023-01-13T07:00:00.214Z,86.4
2023-01-13T07:05:00.149Z,86.8
2023-01-13T07:10:00.145Z,89.2
2023-01-13T07:15:00.137Z,90.7
2023-01-13T07:20:00.119Z,91.6
2023-01-13T07:25:00.112Z,92.2
2023-01-13T07:30:00.177Z,92.8
2023-01-13T07:35:00.147Z,93.1
2023-01-13T07:40:00.125Z,93.2
2023-01-13T07:45:00.127Z,93.5
2023-01-13T07:50:00.183Z,93.7
2023-01-13T07:55:00.145Z,93.8
2023-01-13T08:00:00.143Z,93.9
2023-01-13T08:05:00.162Z,93.8
2023-01-13T08:10:00.100Z,93.6
2023-01-13T08:15:00.182Z,93.1
2023-01-13T08:20:00.163Z,92.7
2023-01-13T08:25:00.128Z,92.5
2023-01-13T08:30:00.157Z,92.2
2023-01-13T08:35:00.164Z,92
2023-01-13T08:40:00.260Z,91.5
2023-01-13T08:45:00.102Z,91.4
2023-01-13T08:50:00.150Z,91.4
2023-01-13T08:55:00.184Z,91.2
2023-01-13T09:00:00.170Z,91
2023-01-13T09:05:00.138Z,90.9
2023-01-13T09:10:00.110Z,90.7
2023-01-13T09:15:00.153Z,90.5
2023-01-13T09:20:00.127Z,90.6
2023-01-13T09:25:00.148Z,90.6
2023-01-13T09:30:00.135Z,90.6
2023-01-13T09:35:00.318Z,90.5
2023-01-13T09:40:00.172Z,90.4
2023-01-13T09:45:00.146Z,90.2
2023-01-13T09:50:00.140Z,90.2
2023-01-13T09:55:00.142Z,90.3
2023-01-13T10:00:00.197Z,90.1
2023-01-13T10:05:00.178Z,90.4
2023-01-13T10:10:00.129Z,90.5
2023-01-13T10:15:00.143Z,90.5
2023-01-13T10:20:00.141Z,90.5
2023-01-13T10:25:00.133Z,90.5
2023-01-13T10:30:00.167Z,90.3
2023-01-13T10:35:00.271Z,90.2
2023-01-13T10:40:00.133Z,90
2023-01-13T10:45:00.137Z,88.6
2023-01-13T10:50:00.142Z,86.4
2023-01-13T10:55:00.130Z,84.7
2023-01-13T11:00:00.220Z,83
2023-01-13T11:05:00.205Z,81.8
2023-01-13T11:10:00.149Z,80.9
2023-01-13T11:15:00.159Z,80.4
2023-01-13T11:20:00.167Z,79.7
2023-01-13T11:25:00.146Z,79.9
2023-01-13T11:30:00.166Z,79.2
2023-01-13T11:35:00.142Z,79.9
2023-01-13T11:40:00.167Z,78.6
2023-01-13T11:45:00.118Z,78.2
2023-01-13T11:50:00.139Z,77.6
2023-01-13T11:55:00.177Z,76.7
2023-01-13T12:00:00.148Z,75.8
2023-01-13T12:05:00.124Z,75.5
2023-01-13T12:10:00.150Z,74.2
2023-01-13T12:15:00.179Z,73.2
2023-01-13T12:20:00.134Z,71.4
2023-01-13T12:25:00.148Z,70.6
2023-01-13T12:30:00.124Z,70.4
2023-01-13T12:35:00.189Z,70.4
2023-01-13T12:40:00.150Z,71
2023-01-13T12:45:00.128Z,71.1
2023-01-13T12:50:00.110Z,71.2
2023-01-13T12:55:00.145Z,71.8
2023-01-13T13:00:00.135Z,72.1
2023-01-13T13:05:00.132Z,72.3
2023-01-13T13:10:00.141Z,71.9
2023-01-13T13:15:05.183Z,70.5
2023-01-13T13:20:00.168Z,69.8
2023-01-13T13:25:00.130Z,69.2
2023-01-13T13:30:00.159Z,69.1
2023-01-13T13:35:00.160Z,69.8
2023-01-13T13:40:00.140Z,70.7
2023-01-13T13:45:00.158Z,71
2023-01-13T13:50:00.188Z,71.7
2023-01-13T13:55:00.152Z,71.8
2023-01-13T14:00:00.279Z,72.8
2023-01-13T14:05:00.192Z,72.8
2023-01-13T14:10:00.101Z,72.6
2023-01-13T14:15:00.114Z,72.1
2023-01-13T14:20:00.091Z,71.8
2023-01-13T14:25:00.113Z,71.4
2023-01-13T14:30:00.227Z,71.9
2023-01-13T14:35:00.078Z,72
2023-01-13T14:40:00.061Z,72.1
2023-01-13T14:45:00.073Z,73
2023-01-13T14:50:00.035Z,73.3
2023-01-13T14:55:00.058Z,73.5
2023-01-13T15:00:00.075Z,74.1
2023-01-13T15:05:00.047Z,74.2
2023-01-13T15:10:00.014Z,74.6
2023-01-13T15:15:00.088Z,75
2023-01-13T15:20:00.062Z,75.1
2023-01-13T15:25:00.049Z,74.7
2023-01-13T15:30:00.050Z,75.9
2023-01-13T15:35:00.100Z,76.2
2023-01-13T15:40:00.069Z,76.3
2023-01-13T15:45:00.038Z,76
2023-01-13T15:50:00.008Z,75.9
2023-01-13T15:55:00.096Z,75.6
2023-01-13T16:00:00.124Z,76.1
2023-01-13T16:05:00.034Z,75.9
2023-01-13T16:10:00.069Z,75.8
2023-01-13T16:15:00.082Z,74.9
2023-01-13T16:20:00.087Z,75.6
2023-01-13T16:25:00.084Z,75.7
2023-01-13T16:30:00.114Z,75.6
2023-01-13T16:35:00.107Z,75.5
2023-01-13T16:40:00.120Z,75.2
2023-01-13T16:45:00.113Z,74.7
2023-01-13T16:50:00.243Z,74.4
2023-01-13T16:55:00.133Z,74
2023-01-13T17:00:00.285Z,73.7
2023-01-13T17:05:00.132Z,73.3
2023-01-13T17:10:00.234Z,73.3
2023-01-13T17:15:00.158Z,73.4
2023-01-13T17:20:00.239Z,73.3
2023-01-13T17:25:00.140Z,73.3
2023-01-13T17:30:00.238Z,73.3
2023-01-13T17:35:00.157Z,73.4
2023-01-13T17:40:00.134Z,73.5
2023-01-13T17:45:00.121Z,73.7
2023-01-13T17:50:00.129Z,73.9
2023-01-13T17:55:00.136Z,74.1
2023-01-13T18:00:00.180Z,74.3
2023-01-13T18:05:00.183Z,74.4
2023-01-13T18:10:00.125Z,74.3
2023-01-13T18:15:00.125Z,74.3
2023-01-13T18:20:00.131Z,74.6
2023-01-13T18:25:00.118Z,75
2023-01-13T18:30:00.175Z,75.4
2023-01-13T18:35:05.529Z,75.5
2023-01-13T18:40:00.155Z,75.8
2023-01-13T18:45:00.138Z,75.9
2023-01-13T18:50:00.104Z,76.2
2023-01-13T18:55:00.162Z,76.3
2023-01-13T19:00:00.138Z,76.7
2023-01-13T19:05:00.106Z,77
2023-01-13T19:10:00.351Z,77.2
2023-01-13T19:15:00.183Z,77.4
2023-01-13T19:20:00.129Z,77.6
2023-01-13T19:25:00.101Z,77.9
2023-01-13T19:30:00.188Z,78
2023-01-13T19:35:00.135Z,78
2023-01-13T19:40:00.136Z,78.2
2023-01-13T19:45:00.130Z,78.6
2023-01-13T19:50:00.135Z,79
2023-01-13T19:55:00.241Z,79.1
2023-01-13T20:00:00.153Z,79.2
2023-01-13T20:05:00.230Z,79.1
2023-01-13T20:10:00.137Z,79.2
2023-01-13T20:15:00.129Z,79.1
2023-01-13T20:20:00.132Z,79.2
2023-01-13T20:25:00.127Z,78.7
2023-01-13T20:30:00.201Z,79.5
2023-01-13T20:35:00.181Z,79.6
2023-01-13T20:40:00.134Z,79.7
2023-01-13T20:45:00.141Z,80
2023-01-13T20:50:00.129Z,80.3
2023-01-13T20:55:00.138Z,80.2
2023-01-13T21:00:00.114Z,80.1
2023-01-13T21:05:00.108Z,80.1
2023-01-13T21:10:00.135Z,80.3
2023-01-13T21:15:00.136Z,80.6
2023-01-13T21:20:00.128Z,80.9
2023-01-13T21:25:00.125Z,81.4
2023-01-13T21:30:00.111Z,81.4
2023-01-13T21:35:00.147Z,81.6
2023-01-13T21:40:00.137Z,81.8
2023-01-13T21:45:00.152Z,82
2023-01-13T21:50:00.131Z,82.3
2023-01-13T21:55:00.142Z,82.5
2023-01-13T22:00:00.159Z,82.7
2023-01-13T22:05:00.123Z,83
2023-01-13T22:10:00.174Z,83.4
2023-01-13T22:15:00.148Z,83.6
2023-01-13T22:20:00.112Z,83.7
2023-01-13T22:25:00.365Z,84
2023-01-13T22:30:00.152Z,84.1
2023-01-13T22:35:00.137Z,84.4
2023-01-13T22:40:00.171Z,84.5
2023-01-13T22:45:00.131Z,84.5
2023-01-13T22:50:00.152Z,84.4
2023-01-13T22:55:00.160Z,84.5
2023-01-13T23:00:00.150Z,84.4
2023-01-13T23:05:00.132Z,84.5
2023-01-13T23:10:00.129Z,84.5
2023-01-13T23:15:00.157Z,84.8
2023-01-13T23:20:00.155Z,85
2023-01-13T23:25:00.113Z,86.5
2023-01-13T23:30:00.121Z,85
2023-01-13T23:35:00.144Z,85.1
2023-01-13T23:40:00.148Z,85
2023-01-13T23:45:00.121Z,85
2023-01-13T23:50:00.112Z,85
2023-01-13T23:55:00.179Z,84.9
